createdAt,value
2023-06-09T00:01:42.788Z,33
2023-06-09T00:04:30.764Z,33
2023-06-09T00:07:18.437Z,34
2023-06-09T00:10:05.988Z,34
2023-06-09T00:12:53.764Z,28
2023-06-09T00:15:41.430Z,33
2023-06-09T00:18:29.085Z,31
2023-06-09T00:21:16.508Z,33
2023-06-09T00:24:04.149Z,33
2023-06-09T00:26:52.007Z,29
2023-06-09T00:29:39.614Z,31
2023-06-09T00:32:27.226Z,32
2023-06-09T00:35:15.089Z,31
2023-06-09T00:38:02.565Z,35
2023-06-09T00:40:50.195Z,32
2023-06-09T00:43:37.846Z,32
2023-06-09T00:46:25.586Z,34
2023-06-09T00:49:13.478Z,34
2023-06-09T00:52:01.127Z,36
2023-06-09T00:54:48.652Z,33
2023-06-09T00:57:38.842Z,29
2023-06-09T01:00:26.395Z,32
2023-06-09T01:03:14.461Z,26
2023-06-09T01:06:02.451Z,32
2023-06-09T01:08:50.027Z,32
2023-06-09T01:11:37.607Z,32
2023-06-09T01:14:25.238Z,35
2023-06-09T01:17:12.856Z,36
2023-06-09T01:20:00.752Z,32
2023-06-09T01:22:48.376Z,32
2023-06-09T01:25:36.206Z,33
2023-06-09T01:28:23.788Z,33
2023-06-09T01:31:11.316Z,31
2023-06-09T01:33:59.129Z,28
2023-06-09T01:36:46.727Z,33
2023-06-09T01:39:34.259Z,32
2023-06-09T01:42:21.857Z,35
2023-06-09T01:45:09.758Z,30
2023-06-09T01:47:57.759Z,30
2023-06-09T01:50:45.365Z,32
2023-06-09T01:53:33.116Z,31
2023-06-09T01:56:20.643Z,33
2023-06-09T01:59:08.139Z,34
2023-06-09T02:01:55.855Z,37
2023-06-09T02:04:43.713Z,30
2023-06-09T02:07:31.418Z,33
2023-06-09T02:10:19.165Z,34
2023-06-09T02:13:06.614Z,41
2023-06-09T02:15:54.279Z,38
2023-06-09T02:18:42.148Z,33
2023-06-09T02:21:29.784Z,36
2023-06-09T02:24:17.417Z,39
2023-06-09T02:27:05.238Z,41
2023-06-09T02:29:52.818Z,40
2023-06-09T02:32:40.552Z,43
2023-06-09T02:35:28.199Z,43
2023-06-09T02:38:15.761Z,48
2023-06-09T02:41:03.314Z,46
2023-06-09T02:43:50.844Z,55
2023-06-09T02:46:38.292Z,56
2023-06-09T02:49:25.921Z,58
2023-06-09T02:52:13.290Z,65
2023-06-09T02:55:01.132Z,67
2023-06-09T02:57:48.884Z,79
2023-06-09T03:00:37.211Z,90
2023-06-09T03:03:24.937Z,99
2023-06-09T03:06:12.777Z,104
2023-06-09T03:09:00.345Z,119
2023-06-09T03:11:48.006Z,131
2023-06-09T03:14:35.518Z,141
2023-06-09T03:17:23.177Z,154
2023-06-09T03:20:10.932Z,166
2023-06-09T03:22:58.598Z,175
2023-06-09T03:25:46.082Z,192
2023-06-09T03:28:33.717Z,197
2023-06-09T03:31:21.389Z,212
2023-06-09T03:34:09.170Z,222
2023-06-09T03:36:56.699Z,232
2023-06-09T03:39:44.227Z,244
2023-06-09T03:42:31.811Z,254
2023-06-09T03:45:19.235Z,264
2023-06-09T03:48:06.810Z,277
2023-06-09T03:50:54.537Z,281
2023-06-09T03:53:42.236Z,292
2023-06-09T03:56:29.796Z,295
2023-06-09T03:59:17.397Z,305
2023-06-09T04:02:05.112Z,314
2023-06-09T04:04:53.219Z,323
2023-06-09T04:07:40.986Z,327
2023-06-09T04:10:28.519Z,332
2023-06-09T04:13:16.096Z,343
2023-06-09T04:16:04.547Z,347
2023-06-09T04:18:52.157Z,353
2023-06-09T04:21:39.673Z,358
2023-06-09T04:24:27.381Z,364
2023-06-09T04:27:14.916Z,370
2023-06-09T04:30:02.384Z,376
2023-06-09T04:32:50.090Z,381
2023-06-09T04:35:38.158Z,382
2023-06-09T04:38:25.661Z,389
2023-06-09T04:41:13.312Z,395
2023-06-09T04:44:00.902Z,398
2023-06-09T04:46:48.533Z,402
2023-06-09T04:49:36.011Z,406
2023-06-09T04:52:24.098Z,405
2023-06-09T04:55:11.641Z,414
2023-06-09T04:57:59.228Z,417
2023-06-09T05:00:46.812Z,418
2023-06-09T05:03:34.712Z,417
2023-06-09T05:06:22.396Z,421
2023-06-09T05:09:09.928Z,417
2023-06-09T05:11:57.567Z,425
2023-06-09T05:14:45.222Z,427
2023-06-09T05:17:32.929Z,426
2023-06-09T05:20:20.641Z,433
2023-06-09T05:23:08.162Z,436
2023-06-09T05:25:55.999Z,441
2023-06-09T05:28:43.620Z,448
2023-06-09T05:31:31.307Z,449
2023-06-09T05:34:19.119Z,457
2023-06-09T05:37:06.637Z,459
2023-06-09T05:39:54.214Z,464
2023-06-09T05:42:41.930Z,468
2023-06-09T05:45:29.496Z,476
2023-06-09T05:48:17.603Z,473
2023-06-09T05:51:05.127Z,486
2023-06-09T05:53:52.628Z,491
2023-06-09T05:56:41.523Z,494
2023-06-09T05:59:30.234Z,499
2023-06-09T06:02:18.156Z,500
2023-06-09T06:05:08.715Z,508
2023-06-09T06:07:56.261Z,508
2023-06-09T06:10:43.865Z,511
2023-06-09T06:13:31.467Z,520
2023-06-09T06:16:19.069Z,521
2023-06-09T06:19:06.785Z,520
2023-06-09T06:21:54.584Z,522
2023-06-09T06:24:42.266Z,523
2023-06-09T06:27:29.947Z,525
2023-06-09T06:30:17.472Z,534
2023-06-09T06:33:05.120Z,553
2023-06-09T06:35:52.907Z,534
2023-06-09T06:38:40.649Z,540
2023-06-09T06:41:28.409Z,544
2023-06-09T06:44:16.029Z,551
2023-06-09T06:47:03.700Z,554
2023-06-09T06:49:51.444Z,555
2023-06-09T06:52:38.987Z,561
2023-06-09T06:55:28.091Z,565
2023-06-09T06:58:17.764Z,570
2023-06-09T07:01:05.419Z,574
2023-06-09T07:03:53.249Z,576
2023-06-09T07:06:40.878Z,577
2023-06-09T07:09:28.466Z,582
2023-06-09T07:12:16.269Z,590
2023-06-09T07:15:03.817Z,594
2023-06-09T07:17:51.598Z,597
2023-06-09T07:20:39.774Z,599
2023-06-09T07:23:27.358Z,605
2023-06-09T07:26:15.016Z,607
2023-06-09T07:29:02.872Z,613
2023-06-09T07:31:50.820Z,614
2023-06-09T07:34:38.583Z,620
2023-06-09T07:37:26.309Z,619
2023-06-09T07:40:19.735Z,625
2023-06-09T07:43:08.178Z,630
2023-06-09T07:45:55.850Z,632
2023-06-09T07:48:43.702Z,635
2023-06-09T07:51:31.530Z,638
2023-06-09T07:54:43.018Z,643
2023-06-09T07:57:35.515Z,648
2023-06-09T08:00:23.384Z,647
2023-06-09T08:03:11.705Z,649
2023-06-09T08:05:59.580Z,655
2023-06-09T08:08:47.159Z,653
2023-06-09T08:11:34.646Z,656
2023-06-09T08:14:22.636Z,660
2023-06-09T08:17:10.180Z,665
2023-06-09T08:19:58.096Z,666
2023-06-09T08:22:45.575Z,667
2023-06-09T08:25:33.062Z,667
2023-06-09T08:28:20.579Z,672
2023-06-09T08:31:08.099Z,674
2023-06-09T08:33:55.963Z,676
2023-06-09T08:36:43.576Z,677
2023-06-09T08:39:31.250Z,681
2023-06-09T08:42:18.675Z,681
2023-06-09T08:45:08.273Z,681
2023-06-09T08:47:56.792Z,685
2023-06-09T08:50:44.299Z,686
2023-06-09T08:53:31.901Z,687
2023-06-09T08:56:19.488Z,685
2023-06-09T08:59:06.856Z,687
2023-06-09T09:01:54.794Z,694
2023-06-09T09:04:42.321Z,695
2023-06-09T09:07:29.719Z,696
2023-06-09T09:10:17.324Z,700
2023-06-09T09:13:04.699Z,692
2023-06-09T09:15:52.441Z,699
2023-06-09T09:18:40.114Z,703
2023-06-09T09:21:27.548Z,703
2023-06-09T09:24:15.072Z,706
2023-06-09T09:27:02.743Z,715
2023-06-09T09:29:50.063Z,705
2023-06-09T09:32:37.689Z,722
2023-06-09T09:35:25.250Z,713
2023-06-09T09:38:12.546Z,704
2023-06-09T09:41:02.009Z,712
2023-06-09T09:43:49.561Z,708
2023-06-09T09:46:36.976Z,715
2023-06-09T09:49:25.120Z,712
2023-06-09T09:52:12.693Z,715
2023-06-09T09:55:00.068Z,716
2023-06-09T09:57:47.664Z,716
2023-06-09T10:00:35.435Z,715
2023-06-09T10:03:23.204Z,720
2023-06-09T10:06:10.947Z,724
2023-06-09T10:08:58.544Z,718
2023-06-09T10:11:46.044Z,737
2023-06-09T10:14:33.442Z,722
2023-06-09T10:17:21.147Z,719
2023-06-09T10:20:09.032Z,719
2023-06-09T10:22:56.413Z,718
2023-06-09T10:25:43.807Z,719
2023-06-09T10:28:31.468Z,722
2023-06-09T10:31:19.198Z,725
2023-06-09T10:34:06.951Z,723
2023-06-09T10:36:54.422Z,726
2023-06-09T10:39:41.989Z,722
2023-06-09T10:42:29.907Z,724
2023-06-09T10:45:17.345Z,727
2023-06-09T10:48:04.935Z,735
2023-06-09T10:50:52.454Z,723
2023-06-09T10:53:39.985Z,725
2023-06-09T10:56:27.546Z,726
2023-06-09T10:59:15.182Z,729
2023-06-09T11:02:02.720Z,726
2023-06-09T11:04:50.652Z,728
2023-06-09T11:07:38.443Z,725
2023-06-09T11:10:25.971Z,722
2023-06-09T11:13:13.494Z,722
2023-06-09T11:16:00.976Z,643
2023-06-09T11:18:48.629Z,730
2023-06-09T11:21:36.140Z,728
2023-06-09T11:24:23.711Z,735
2023-06-09T11:27:11.440Z,730
2023-06-09T11:29:58.880Z,731
2023-06-09T11:32:46.226Z,734
2023-06-09T11:35:34.070Z,732
2023-06-09T11:38:21.682Z,733
2023-06-09T11:41:09.280Z,734
2023-06-09T11:43:56.719Z,717
2023-06-09T11:46:44.135Z,613
2023-06-09T11:49:31.667Z,615
2023-06-09T11:52:19.150Z,736
2023-06-09T11:55:06.708Z,611
2023-06-09T11:57:54.288Z,613
2023-06-09T12:00:41.795Z,679
2023-06-09T12:03:29.369Z,607
2023-06-09T12:06:16.979Z,605
2023-06-09T12:09:04.507Z,620
2023-06-09T12:11:52.061Z,611
2023-06-09T12:14:39.604Z,735
2023-06-09T12:17:27.274Z,730
2023-06-09T12:20:15.504Z,613
2023-06-09T12:23:04.838Z,707
2023-06-09T12:25:52.736Z,610
2023-06-09T12:28:40.215Z,735
2023-06-09T12:31:27.685Z,634
2023-06-09T12:34:15.217Z,728
2023-06-09T12:37:02.768Z,603
2023-06-09T12:39:50.375Z,594
2023-06-09T12:42:38.464Z,587
2023-06-09T12:45:26.933Z,713
2023-06-09T12:48:15.700Z,730
2023-06-09T12:51:03.610Z,751
2023-06-09T12:53:51.036Z,709
2023-06-09T12:56:38.530Z,612
2023-06-09T12:59:25.839Z,598
2023-06-09T13:02:39.007Z,605
2023-06-09T13:05:27.052Z,695
2023-06-09T13:08:14.388Z,729
2023-06-09T13:11:01.859Z,748
2023-06-09T13:13:49.268Z,597
2023-06-09T13:16:36.799Z,729
2023-06-09T13:19:24.563Z,730
2023-06-09T13:22:12.113Z,721
2023-06-09T13:24:59.584Z,726
2023-06-09T13:27:47.120Z,725
2023-06-09T13:30:35.974Z,726
2023-06-09T13:33:24.322Z,724
2023-06-09T13:36:11.917Z,728
2023-06-09T13:38:59.577Z,724
2023-06-09T13:41:50.025Z,673
2023-06-09T13:44:37.684Z,595
2023-06-09T13:47:26.377Z,570
2023-06-09T13:50:21.358Z,559
2023-06-09T13:53:08.873Z,566
2023-06-09T13:55:56.371Z,578
2023-06-09T13:58:43.735Z,577
2023-06-09T14:01:31.238Z,597
2023-06-09T14:04:19.186Z,713
2023-06-09T14:07:07.301Z,704
2023-06-09T14:09:54.896Z,717
2023-06-09T14:12:42.557Z,678
2023-06-09T14:15:30.764Z,682
2023-06-09T14:18:18.463Z,617
2023-06-09T14:21:06.122Z,596
2023-06-09T14:23:53.704Z,589
2023-06-09T14:26:41.500Z,599
2023-06-09T14:29:29.055Z,604
2023-06-09T14:32:16.577Z,603
2023-06-09T14:35:04.112Z,603
2023-06-09T14:37:51.632Z,615
2023-06-09T14:40:39.074Z,625
2023-06-09T14:43:26.405Z,698
2023-06-09T14:46:13.948Z,701
2023-06-09T14:49:01.539Z,708
2023-06-09T14:51:49.116Z,655
2023-06-09T14:54:36.558Z,676
2023-06-09T14:57:24.328Z,694
2023-06-09T15:00:11.747Z,638
2023-06-09T15:02:59.340Z,651
2023-06-09T15:05:46.960Z,627
2023-06-09T15:08:34.438Z,697
2023-06-09T15:11:21.847Z,687
2023-06-09T15:14:09.389Z,689
2023-06-09T15:16:56.941Z,688
2023-06-09T15:19:44.754Z,674
2023-06-09T15:22:32.232Z,656
2023-06-09T15:25:19.573Z,588
2023-06-09T15:28:09.805Z,566
2023-06-09T15:30:57.400Z,561
2023-06-09T15:33:45.133Z,570
2023-06-09T15:36:32.732Z,631
2023-06-09T15:39:20.208Z,576
2023-06-09T15:42:07.646Z,628
2023-06-09T15:44:55.162Z,578
2023-06-09T15:47:42.815Z,618
2023-06-09T15:50:30.614Z,649
2023-06-09T15:53:18.254Z,651
2023-06-09T15:56:05.624Z,644
2023-06-09T15:58:53.090Z,613
2023-06-09T16:01:40.597Z,626
2023-06-09T16:04:28.155Z,578
2023-06-09T16:07:15.713Z,625
2023-06-09T16:10:03.212Z,597
2023-06-09T16:12:50.846Z,591
2023-06-09T16:15:38.456Z,616
2023-06-09T16:18:25.902Z,615
2023-06-09T16:21:13.332Z,612
2023-06-09T16:24:00.912Z,612
2023-06-09T16:26:48.691Z,605
2023-06-09T16:29:36.272Z,602
2023-06-09T16:32:23.839Z,587
2023-06-09T16:35:11.417Z,548
2023-06-09T16:37:58.919Z,542
2023-06-09T16:40:46.633Z,577
2023-06-09T16:43:34.209Z,560
2023-06-09T16:46:21.967Z,566
2023-06-09T16:49:09.974Z,562
2023-06-09T16:51:57.399Z,571
2023-06-09T16:54:44.896Z,572
2023-06-09T16:57:32.495Z,552
2023-06-09T17:00:20.136Z,551
2023-06-09T17:03:07.805Z,543
2023-06-09T17:05:55.546Z,541
2023-06-09T17:08:43.001Z,528
2023-06-09T17:11:30.511Z,526
2023-06-09T17:14:20.450Z,527
2023-06-09T17:17:08.122Z,521
2023-06-09T17:19:55.751Z,518
2023-06-09T17:22:43.390Z,517
2023-06-09T17:25:30.961Z,516
2023-06-09T17:28:18.298Z,512
2023-06-09T17:31:05.771Z,527
2023-06-09T17:33:53.595Z,518
2023-06-09T17:36:41.125Z,527
2023-06-09T17:39:28.700Z,533
2023-06-09T17:42:16.313Z,525
2023-06-09T17:45:03.758Z,517
2023-06-09T17:47:51.205Z,503
2023-06-09T17:50:38.860Z,484
2023-06-09T17:53:26.286Z,473
2023-06-09T17:56:13.901Z,457
2023-06-09T17:59:01.447Z,451
2023-06-09T18:01:48.957Z,432
2023-06-09T18:04:36.576Z,423
2023-06-09T18:07:24.556Z,406
2023-06-09T18:10:12.026Z,407
2023-06-09T18:12:59.544Z,406
2023-06-09T18:15:47.091Z,423
2023-06-09T18:18:34.952Z,422
2023-06-09T18:21:22.343Z,428
2023-06-09T18:24:10.308Z,427
2023-06-09T18:26:57.915Z,421
2023-06-09T18:29:45.420Z,420
2023-06-09T18:32:32.869Z,416
2023-06-09T18:35:20.644Z,408
2023-06-09T18:38:08.284Z,403
2023-06-09T18:40:55.901Z,379
2023-06-09T18:43:43.461Z,383
2023-06-09T18:46:31.036Z,361
2023-06-09T18:49:18.810Z,339
2023-06-09T18:52:06.253Z,319
2023-06-09T18:54:53.810Z,305
2023-06-09T18:57:41.408Z,287
2023-06-09T19:00:28.916Z,272
2023-06-09T19:03:16.680Z,264
2023-06-09T19:06:04.462Z,258
2023-06-09T19:08:52.085Z,252
2023-06-09T19:11:39.635Z,249
2023-06-09T19:14:27.207Z,250
2023-06-09T19:17:15.150Z,238
2023-06-09T19:20:02.978Z,236
2023-06-09T19:22:50.957Z,229
2023-06-09T19:25:38.685Z,221
2023-06-09T19:28:26.342Z,214
2023-06-09T19:31:14.127Z,201
2023-06-09T19:34:01.857Z,198
2023-06-09T19:36:49.562Z,193
2023-06-09T19:39:36.991Z,185
2023-06-09T19:42:24.521Z,173
2023-06-09T19:45:11.959Z,167
2023-06-09T19:47:59.496Z,158
2023-06-09T19:50:47.044Z,148
2023-06-09T19:53:34.450Z,136
2023-06-09T19:56:21.905Z,128
2023-06-09T19:59:09.421Z,118
2023-06-09T20:01:57.072Z,110
2023-06-09T20:04:45.017Z,102
2023-06-09T20:07:32.418Z,93
2023-06-09T20:10:19.965Z,78
2023-06-09T20:13:07.516Z,75
2023-06-09T20:15:55.029Z,66
2023-06-09T20:18:42.817Z,68
2023-06-09T20:21:30.358Z,56
2023-06-09T20:24:17.857Z,53
2023-06-09T20:27:05.518Z,52
2023-06-09T20:29:53.092Z,47
2023-06-09T20:32:40.530Z,44
2023-06-09T20:35:28.342Z,42
2023-06-09T20:38:15.931Z,34
2023-06-09T20:41:03.505Z,41
2023-06-09T20:43:51.087Z,39
2023-06-09T20:46:38.510Z,39
2023-06-09T20:49:26.096Z,38
2023-06-09T20:52:13.709Z,39
2023-06-09T20:55:01.303Z,36
2023-06-09T20:57:48.671Z,41
2023-06-09T21:00:36.155Z,40
2023-06-09T21:03:23.710Z,34
2023-06-09T21:06:12.386Z,34
2023-06-09T21:08:59.886Z,37
2023-06-09T21:11:47.390Z,34
2023-06-09T21:14:34.732Z,36
2023-06-09T21:17:22.304Z,38
2023-06-09T21:20:09.918Z,35
2023-06-09T21:22:57.440Z,36
2023-06-09T21:25:44.997Z,38
2023-06-09T21:28:32.609Z,35
2023-06-09T21:31:20.144Z,35
2023-06-09T21:34:07.825Z,36
2023-06-09T21:36:55.445Z,32
2023-06-09T21:39:42.971Z,38
2023-06-09T21:42:30.429Z,35
2023-06-09T21:45:18.024Z,31
2023-06-09T21:48:05.706Z,30
2023-06-09T21:50:53.133Z,35
2023-06-09T21:53:40.672Z,36
2023-06-09T21:56:28.161Z,29
2023-06-09T21:59:15.540Z,33
2023-06-09T22:02:03.195Z,37
2023-06-09T22:04:50.873Z,34
2023-06-09T22:07:38.532Z,33
2023-06-09T22:10:25.948Z,36
2023-06-09T22:13:13.335Z,33
2023-06-09T22:16:00.755Z,33
2023-06-09T22:18:48.458Z,37
2023-06-09T22:21:35.966Z,30
2023-06-09T22:24:23.528Z,34
2023-06-09T22:27:11.042Z,35
2023-06-09T22:29:58.417Z,39
2023-06-09T22:32:45.739Z,34
2023-06-09T22:35:33.259Z,36
2023-06-09T22:38:20.655Z,39
2023-06-09T22:41:07.980Z,34
2023-06-09T22:43:55.486Z,33
2023-06-09T22:46:43.176Z,34
2023-06-09T22:49:30.598Z,37
2023-06-09T22:52:18.174Z,35
2023-06-09T22:55:06.008Z,35
2023-06-09T22:57:53.714Z,31
2023-06-09T23:00:41.162Z,34
2023-06-09T23:03:28.587Z,33
2023-06-09T23:06:16.172Z,32
2023-06-09T23:09:03.744Z,33
2023-06-09T23:11:51.143Z,33
2023-06-09T23:14:38.551Z,34
2023-06-09T23:17:27.443Z,38
2023-06-09T23:20:15.045Z,33
2023-06-09T23:23:02.848Z,30
2023-06-09T23:25:50.613Z,34
2023-06-09T23:28:38.178Z,41
2023-06-09T23:31:25.745Z,34
2023-06-09T23:34:13.397Z,35
2023-06-09T23:37:01.120Z,30
2023-06-09T23:39:48.728Z,34
2023-06-09T23:42:36.264Z,37
2023-06-09T23:45:23.852Z,31
2023-06-09T23:48:11.522Z,36
2023-06-09T23:50:59.175Z,30
2023-06-09T23:53:46.695Z,30
2023-06-09T23:56:34.040Z,31
2023-06-09T23:59:21.552Z,32
